sensor_id;sensor_type;location;lat;lon;timestamp;temperature;humidity
11577;DHT22;5844;51.496;6.788;2023-07-13T00:00:29;17.70;1.00
11577;DHT22;5844;51.496;6.788;2023-07-13T00:02:56;17.70;1.00
11577;DHT22;5844;51.496;6.788;2023-07-13T00:05:22;17.70;1.00
11577;DHT22;5844;51.496;6.788;2023-07-13T00:07:49;17.60;1.00
11577;DHT22;5844;51.496;6.788;2023-07-13T00:10:15;17.60;1.00
11577;DHT22;5844;51.496;6.788;2023-07-13T00:12:41;17.60;1.00
11577;DHT22;5844;51.496;6.788;2023-07-13T00:15:16;17.50;1.00
11577;DHT22;5844;51.496;6.788;2023-07-13T00:17:42;17.40;1.00
11577;DHT22;5844;51.496;6.788;2023-07-13T00:20:10;17.50;1.00
11577;DHT22;5844;51.496;6.788;2023-07-13T00:22:36;17.40;1.00
11577;DHT22;5844;51.496;6.788;2023-07-13T00:25:03;17.40;1.00
11577;DHT22;5844;51.496;6.788;2023-07-13T00:27:28;17.40;1.00
11577;DHT22;5844;51.496;6.788;2023-07-13T00:29:57;17.40;1.00
11577;DHT22;5844;51.496;6.788;2023-07-13T00:32:23;17.40;1.00
11577;DHT22;5844;51.496;6.788;2023-07-13T00:34:51;17.40;1.00
11577;DHT22;5844;51.496;6.788;2023-07-13T00:37:17;17.30;1.00
11577;DHT22;5844;51.496;6.788;2023-07-13T00:39:42;17.20;1.00
11577;DHT22;5844;51.496;6.788;2023-07-13T00:42:08;17.20;1.00
11577;DHT22;5844;51.496;6.788;2023-07-13T00:44:34;17.20;1.00
11577;DHT22;5844;51.496;6.788;2023-07-13T00:47:00;17.10;1.00
11577;DHT22;5844;51.496;6.788;2023-07-13T00:49:29;17.10;1.00
11577;DHT22;5844;51.496;6.788;2023-07-13T00:52:04;17.10;1.00
11577;DHT22;5844;51.496;6.788;2023-07-13T00:54:34;17.10;1.00
11577;DHT22;5844;51.496;6.788;2023-07-13T00:57:05;17.00;1.00
11577;DHT22;5844;51.496;6.788;2023-07-13T00:59:32;17.00;1.00
11577;DHT22;5844;51.496;6.788;2023-07-13T01:02:00;17.00;1.00
11577;DHT22;5844;51.496;6.788;2023-07-13T01:04:26;16.90;1.00
11577;DHT22;5844;51.496;6.788;2023-07-13T01:06:52;16.90;1.00
11577;DHT22;5844;51.496;6.788;2023-07-13T01:09:19;16.80;1.00
11577;DHT22;5844;51.496;6.788;2023-07-13T01:11:45;16.80;1.00
11577;DHT22;5844;51.496;6.788;2023-07-13T01:14:11;16.70;1.00
11577;DHT22;5844;51.496;6.788;2023-07-13T01:16:38;16.80;1.00
11577;DHT22;5844;51.496;6.788;2023-07-13T01:19:19;16.80;1.00
11577;DHT22;5844;51.496;6.788;2023-07-13T01:21:50;16.70;1.00
11577;DHT22;5844;51.496;6.788;2023-07-13T01:24:16;16.60;1.00
11577;DHT22;5844;51.496;6.788;2023-07-13T01:26:43;16.60;1.00
11577;DHT22;5844;51.496;6.788;2023-07-13T01:29:08;16.60;1.00
11577;DHT22;5844;51.496;6.788;2023-07-13T01:31:34;16.60;1.00
11577;DHT22;5844;51.496;6.788;2023-07-13T01:34:00;16.70;1.00
11577;DHT22;5844;51.496;6.788;2023-07-13T01:36:27;16.70;1.00
11577;DHT22;5844;51.496;6.788;2023-07-13T01:38:52;16.80;1.00
11577;DHT22;5844;51.496;6.788;2023-07-13T01:41:18;16.80;1.00
11577;DHT22;5844;51.496;6.788;2023-07-13T01:43:45;16.80;1.00
11577;DHT22;5844;51.496;6.788;2023-07-13T01:46:11;16.70;1.00
11577;DHT22;5844;51.496;6.788;2023-07-13T01:48:37;16.70;1.00
11577;DHT22;5844;51.496;6.788;2023-07-13T01:51:02;16.70;1.00
11577;DHT22;5844;51.496;6.788;2023-07-13T01:53:28;16.70;1.00
11577;DHT22;5844;51.496;6.788;2023-07-13T01:55:54;16.60;1.00
11577;DHT22;5844;51.496;6.788;2023-07-13T01:58:20;16.50;1.00
11577;DHT22;5844;51.496;6.788;2023-07-13T02:00:48;16.50;1.00
11577;DHT22;5844;51.496;6.788;2023-07-13T02:03:14;16.50;1.00
11577;DHT22;5844;51.496;6.788;2023-07-13T02:05:43;16.50;1.00
11577;DHT22;5844;51.496;6.788;2023-07-13T02:08:09;16.50;1.00
11577;DHT22;5844;51.496;6.788;2023-07-13T02:10:36;16.50;1.00
11577;DHT22;5844;51.496;6.788;2023-07-13T02:13:01;16.40;1.00
11577;DHT22;5844;51.496;6.788;2023-07-13T02:15:27;16.40;1.00
11577;DHT22;5844;51.496;6.788;2023-07-13T02:17:53;16.40;1.00
11577;DHT22;5844;51.496;6.788;2023-07-13T02:20:19;16.50;1.00
11577;DHT22;5844;51.496;6.788;2023-07-13T02:22:45;16.40;1.00
11577;DHT22;5844;51.496;6.788;2023-07-13T02:25:10;16.40;1.00
11577;DHT22;5844;51.496;6.788;2023-07-13T02:27:36;16.30;1.00
11577;DHT22;5844;51.496;6.788;2023-07-13T02:30:02;16.30;1.00
11577;DHT22;5844;51.496;6.788;2023-07-13T02:32:28;16.20;1.00
11577;DHT22;5844;51.496;6.788;2023-07-13T02:34:54;16.10;1.00
11577;DHT22;5844;51.496;6.788;2023-07-13T02:37:19;16.10;1.00
11577;DHT22;5844;51.496;6.788;2023-07-13T02:39:45;16.20;1.00
11577;DHT22;5844;51.496;6.788;2023-07-13T02:42:10;16.10;1.00
11577;DHT22;5844;51.496;6.788;2023-07-13T02:44:36;16.10;1.00
11577;DHT22;5844;51.496;6.788;2023-07-13T02:47:02;16.00;1.00
11577;DHT22;5844;51.496;6.788;2023-07-13T02:49:27;16.10;1.00
11577;DHT22;5844;51.496;6.788;2023-07-13T02:51:53;16.10;1.00
11577;DHT22;5844;51.496;6.788;2023-07-13T02:54:18;16.20;1.00
11577;DHT22;5844;51.496;6.788;2023-07-13T02:56:44;16.20;1.00
11577;DHT22;5844;51.496;6.788;2023-07-13T02:59:10;16.10;1.00
11577;DHT22;5844;51.496;6.788;2023-07-13T03:01:36;16.10;1.00
11577;DHT22;5844;51.496;6.788;2023-07-13T03:04:03;16.10;1.00
11577;DHT22;5844;51.496;6.788;2023-07-13T03:06:30;16.10;1.00
11577;DHT22;5844;51.496;6.788;2023-07-13T03:08:56;16.10;1.00
11577;DHT22;5844;51.496;6.788;2023-07-13T03:11:21;16.10;1.00
11577;DHT22;5844;51.496;6.788;2023-07-13T03:13:47;16.00;1.00
11577;DHT22;5844;51.496;6.788;2023-07-13T03:16:14;16.00;1.00
11577;DHT22;5844;51.496;6.788;2023-07-13T03:18:41;16.00;1.00
11577;DHT22;5844;51.496;6.788;2023-07-13T03:21:07;16.00;1.00
11577;DHT22;5844;51.496;6.788;2023-07-13T03:23:32;16.00;1.00
11577;DHT22;5844;51.496;6.788;2023-07-13T03:26:19;16.00;1.00
11577;DHT22;5844;51.496;6.788;2023-07-13T03:28:45;16.10;1.00
11577;DHT22;5844;51.496;6.788;2023-07-13T03:31:17;16.10;1.00
11577;DHT22;5844;51.496;6.788;2023-07-13T03:33:43;16.10;1.00
11577;DHT22;5844;51.496;6.788;2023-07-13T03:36:17;16.10;1.00
11577;DHT22;5844;51.496;6.788;2023-07-13T03:38:52;16.20;1.00
11577;DHT22;5844;51.496;6.788;2023-07-13T03:41:19;16.20;1.00
11577;DHT22;5844;51.496;6.788;2023-07-13T03:43:45;16.30;1.00
11577;DHT22;5844;51.496;6.788;2023-07-13T03:46:11;16.30;1.00
11577;DHT22;5844;51.496;6.788;2023-07-13T03:48:37;16.30;1.00
11577;DHT22;5844;51.496;6.788;2023-07-13T03:51:02;16.30;1.00
11577;DHT22;5844;51.496;6.788;2023-07-13T03:53:28;16.30;1.00
11577;DHT22;5844;51.496;6.788;2023-07-13T03:55:54;16.30;1.00
11577;DHT22;5844;51.496;6.788;2023-07-13T03:58:27;16.40;1.00
11577;DHT22;5844;51.496;6.788;2023-07-13T04:01:04;16.40;1.00
11577;DHT22;5844;51.496;6.788;2023-07-13T04:03:32;16.30;1.00
11577;DHT22;5844;51.496;6.788;2023-07-13T04:06:03;16.40;1.00
11577;DHT22;5844;51.496;6.788;2023-07-13T04:08:35;16.30;1.00
11577;DHT22;5844;51.496;6.788;2023-07-13T04:11:02;16.30;1.00
11577;DHT22;5844;51.496;6.788;2023-07-13T04:13:28;16.30;1.00
11577;DHT22;5844;51.496;6.788;2023-07-13T04:15:54;16.30;1.00
11577;DHT22;5844;51.496;6.788;2023-07-13T04:18:20;16.30;1.00
11577;DHT22;5844;51.496;6.788;2023-07-13T04:20:47;16.30;1.00
11577;DHT22;5844;51.496;6.788;2023-07-13T04:23:13;16.40;1.00
11577;DHT22;5844;51.496;6.788;2023-07-13T04:25:39;16.40;1.00
11577;DHT22;5844;51.496;6.788;2023-07-13T04:28:04;16.50;1.00
11577;DHT22;5844;51.496;6.788;2023-07-13T04:30:30;16.60;1.00
11577;DHT22;5844;51.496;6.788;2023-07-13T04:32:56;16.60;1.00
11577;DHT22;5844;51.496;6.788;2023-07-13T04:35:22;16.60;1.00
11577;DHT22;5844;51.496;6.788;2023-07-13T04:37:48;16.60;1.00
11577;DHT22;5844;51.496;6.788;2023-07-13T04:40:17;16.50;1.00
11577;DHT22;5844;51.496;6.788;2023-07-13T04:42:43;16.60;1.00
11577;DHT22;5844;51.496;6.788;2023-07-13T04:45:09;16.50;1.00
11577;DHT22;5844;51.496;6.788;2023-07-13T04:47:35;16.60;1.00
11577;DHT22;5844;51.496;6.788;2023-07-13T04:50:01;16.50;1.00
11577;DHT22;5844;51.496;6.788;2023-07-13T04:52:26;16.50;1.00
11577;DHT22;5844;51.496;6.788;2023-07-13T04:54:52;16.50;1.00
11577;DHT22;5844;51.496;6.788;2023-07-13T04:57:18;16.50;1.00
11577;DHT22;5844;51.496;6.788;2023-07-13T04:59:43;16.50;1.00
11577;DHT22;5844;51.496;6.788;2023-07-13T05:02:09;16.50;1.00
11577;DHT22;5844;51.496;6.788;2023-07-13T05:04:35;16.60;1.00
11577;DHT22;5844;51.496;6.788;2023-07-13T05:07:01;16.60;1.00
11577;DHT22;5844;51.496;6.788;2023-07-13T05:09:26;16.60;1.00
11577;DHT22;5844;51.496;6.788;2023-07-13T05:11:52;16.60;1.00
11577;DHT22;5844;51.496;6.788;2023-07-13T05:14:18;16.60;1.00
11577;DHT22;5844;51.496;6.788;2023-07-13T05:16:43;16.50;1.00
11577;DHT22;5844;51.496;6.788;2023-07-13T05:19:09;16.50;1.00
11577;DHT22;5844;51.496;6.788;2023-07-13T05:21:35;16.40;1.00
11577;DHT22;5844;51.496;6.788;2023-07-13T05:24:01;16.40;1.00
11577;DHT22;5844;51.496;6.788;2023-07-13T05:26:26;16.50;1.00
11577;DHT22;5844;51.496;6.788;2023-07-13T05:28:52;16.50;1.00
11577;DHT22;5844;51.496;6.788;2023-07-13T05:31:18;16.50;1.00
11577;DHT22;5844;51.496;6.788;2023-07-13T05:33:43;16.50;1.00
11577;DHT22;5844;51.496;6.788;2023-07-13T05:36:09;16.60;1.00
11577;DHT22;5844;51.496;6.788;2023-07-13T05:38:35;16.60;1.00
11577;DHT22;5844;51.496;6.788;2023-07-13T05:41:01;16.50;1.00
11577;DHT22;5844;51.496;6.788;2023-07-13T05:43:26;16.60;1.00
11577;DHT22;5844;51.496;6.788;2023-07-13T05:45:56;16.60;1.00
11577;DHT22;5844;51.496;6.788;2023-07-13T05:48:22;16.60;1.00
11577;DHT22;5844;51.496;6.788;2023-07-13T05:50:48;16.60;1.00
11577;DHT22;5844;51.496;6.788;2023-07-13T05:53:14;16.60;1.00
11577;DHT22;5844;51.496;6.788;2023-07-13T05:55:44;16.80;1.00
11577;DHT22;5844;51.496;6.788;2023-07-13T05:58:10;16.90;1.00
11577;DHT22;5844;51.496;6.788;2023-07-13T06:00:36;17.10;1.00
11577;DHT22;5844;51.496;6.788;2023-07-13T06:03:02;17.10;1.00
11577;DHT22;5844;51.496;6.788;2023-07-13T06:05:28;17.20;1.00
11577;DHT22;5844;51.496;6.788;2023-07-13T06:07:54;17.20;1.00
11577;DHT22;5844;51.496;6.788;2023-07-13T06:10:20;17.40;1.00
11577;DHT22;5844;51.496;6.788;2023-07-13T06:12:46;17.50;1.00
11577;DHT22;5844;51.496;6.788;2023-07-13T06:15:11;17.50;1.00
11577;DHT22;5844;51.496;6.788;2023-07-13T06:17:37;17.70;1.00
11577;DHT22;5844;51.496;6.788;2023-07-13T06:20:03;17.70;1.00
11577;DHT22;5844;51.496;6.788;2023-07-13T06:22:28;17.70;1.00
11577;DHT22;5844;51.496;6.788;2023-07-13T06:24:54;17.90;1.00
11577;DHT22;5844;51.496;6.788;2023-07-13T06:27:20;17.90;1.00
11577;DHT22;5844;51.496;6.788;2023-07-13T06:29:46;17.80;1.00
11577;DHT22;5844;51.496;6.788;2023-07-13T06:32:11;17.90;1.00
11577;DHT22;5844;51.496;6.788;2023-07-13T06:34:37;17.80;1.00
11577;DHT22;5844;51.496;6.788;2023-07-13T06:37:02;17.80;1.00
11577;DHT22;5844;51.496;6.788;2023-07-13T06:39:28;17.80;1.00
11577;DHT22;5844;51.496;6.788;2023-07-13T06:41:54;17.90;1.00
11577;DHT22;5844;51.496;6.788;2023-07-13T06:44:19;18.10;1.00
11577;DHT22;5844;51.496;6.788;2023-07-13T06:46:45;18.20;1.00
11577;DHT22;5844;51.496;6.788;2023-07-13T06:49:10;18.20;1.00
11577;DHT22;5844;51.496;6.788;2023-07-13T06:51:36;18.40;1.00
11577;DHT22;5844;51.496;6.788;2023-07-13T06:54:03;18.40;1.00
11577;DHT22;5844;51.496;6.788;2023-07-13T06:56:29;18.40;1.00
11577;DHT22;5844;51.496;6.788;2023-07-13T06:58:55;18.50;1.00
11577;DHT22;5844;51.496;6.788;2023-07-13T07:01:20;18.80;1.00
11577;DHT22;5844;51.496;6.788;2023-07-13T07:03:46;18.70;1.00
11577;DHT22;5844;51.496;6.788;2023-07-13T07:06:22;18.70;1.00
11577;DHT22;5844;51.496;6.788;2023-07-13T07:08:50;18.70;1.00
11577;DHT22;5844;51.496;6.788;2023-07-13T07:11:23;18.60;1.00
11577;DHT22;5844;51.496;6.788;2023-07-13T07:13:50;18.70;1.00
11577;DHT22;5844;51.496;6.788;2023-07-13T07:16:16;18.80;1.00
11577;DHT22;5844;51.496;6.788;2023-07-13T07:18:42;19.00;1.00
11577;DHT22;5844;51.496;6.788;2023-07-13T07:21:07;19.20;1.00
11577;DHT22;5844;51.496;6.788;2023-07-13T07:23:33;19.20;1.00
11577;DHT22;5844;51.496;6.788;2023-07-13T07:25:59;19.30;1.00
11577;DHT22;5844;51.496;6.788;2023-07-13T07:28:25;19.30;1.00
11577;DHT22;5844;51.496;6.788;2023-07-13T07:30:53;19.30;1.00
11577;DHT22;5844;51.496;6.788;2023-07-13T07:33:19;19.30;1.00
11577;DHT22;5844;51.496;6.788;2023-07-13T07:35:45;19.40;1.00
11577;DHT22;5844;51.496;6.788;2023-07-13T07:38:10;19.30;1.00
11577;DHT22;5844;51.496;6.788;2023-07-13T07:40:38;19.20;1.00
11577;DHT22;5844;51.496;6.788;2023-07-13T07:43:04;19.40;1.00
11577;DHT22;5844;51.496;6.788;2023-07-13T07:45:29;19.50;1.00
11577;DHT22;5844;51.496;6.788;2023-07-13T07:47:55;19.70;1.00
11577;DHT22;5844;51.496;6.788;2023-07-13T07:50:25;19.80;1.00
11577;DHT22;5844;51.496;6.788;2023-07-13T07:52:51;19.70;1.00
11577;DHT22;5844;51.496;6.788;2023-07-13T07:55:16;19.90;1.00
11577;DHT22;5844;51.496;6.788;2023-07-13T07:57:42;19.90;1.00
11577;DHT22;5844;51.496;6.788;2023-07-13T08:00:08;19.90;1.00
11577;DHT22;5844;51.496;6.788;2023-07-13T08:02:34;19.70;1.00
11577;DHT22;5844;51.496;6.788;2023-07-13T08:05:00;19.80;1.00
11577;DHT22;5844;51.496;6.788;2023-07-13T08:07:25;19.70;1.00
11577;DHT22;5844;51.496;6.788;2023-07-13T08:09:54;19.50;1.00
11577;DHT22;5844;51.496;6.788;2023-07-13T08:12:20;19.40;1.00
11577;DHT22;5844;51.496;6.788;2023-07-13T08:14:45;19.60;1.00
11577;DHT22;5844;51.496;6.788;2023-07-13T08:17:14;19.50;1.00
11577;DHT22;5844;51.496;6.788;2023-07-13T08:19:40;19.60;1.00
11577;DHT22;5844;51.496;6.788;2023-07-13T08:22:05;19.90;1.00
11577;DHT22;5844;51.496;6.788;2023-07-13T08:24:31;20.00;1.00
11577;DHT22;5844;51.496;6.788;2023-07-13T08:26:58;20.20;1.00
11577;DHT22;5844;51.496;6.788;2023-07-13T08:29:23;20.10;1.00
11577;DHT22;5844;51.496;6.788;2023-07-13T08:31:49;20.30;1.00
11577;DHT22;5844;51.496;6.788;2023-07-13T08:34:15;20.20;1.00
11577;DHT22;5844;51.496;6.788;2023-07-13T08:36:41;20.10;1.00
11577;DHT22;5844;51.496;6.788;2023-07-13T08:39:07;20.10;1.00
11577;DHT22;5844;51.496;6.788;2023-07-13T08:41:33;20.00;1.00
11577;DHT22;5844;51.496;6.788;2023-07-13T08:44:00;20.20;1.00
11577;DHT22;5844;51.496;6.788;2023-07-13T08:46:38;20.30;1.00
11577;DHT22;5844;51.496;6.788;2023-07-13T08:49:17;20.20;1.00
11577;DHT22;5844;51.496;6.788;2023-07-13T08:51:44;20.40;1.00
11577;DHT22;5844;51.496;6.788;2023-07-13T08:54:37;20.60;1.00
11577;DHT22;5844;51.496;6.788;2023-07-13T08:57:14;20.60;1.00
11577;DHT22;5844;51.496;6.788;2023-07-13T08:59:40;20.70;1.00
11577;DHT22;5844;51.496;6.788;2023-07-13T09:04:44;20.80;1.00
11577;DHT22;5844;51.496;6.788;2023-07-13T09:12:27;20.70;1.00
11577;DHT22;5844;51.496;6.788;2023-07-13T09:14:57;20.90;1.00
11577;DHT22;5844;51.496;6.788;2023-07-13T09:20:22;21.00;1.00
11577;DHT22;5844;51.496;6.788;2023-07-13T09:22:49;21.00;1.00
11577;DHT22;5844;51.496;6.788;2023-07-13T09:25:36;21.00;1.00
11577;DHT22;5844;51.496;6.788;2023-07-13T09:28:19;21.30;1.00
11577;DHT22;5844;51.496;6.788;2023-07-13T09:31:04;21.30;1.00
11577;DHT22;5844;51.496;6.788;2023-07-13T09:33:31;21.70;1.00
11577;DHT22;5844;51.496;6.788;2023-07-13T09:35:57;22.20;1.00
11577;DHT22;5844;51.496;6.788;2023-07-13T09:38:28;22.40;1.00
11577;DHT22;5844;51.496;6.788;2023-07-13T09:44:16;23.00;1.00
11577;DHT22;5844;51.496;6.788;2023-07-13T09:46:52;23.10;1.00
11577;DHT22;5844;51.496;6.788;2023-07-13T09:49:18;22.70;1.00
11577;DHT22;5844;51.496;6.788;2023-07-13T09:51:43;22.30;1.00
11577;DHT22;5844;51.496;6.788;2023-07-13T09:54:24;21.80;1.00
11577;DHT22;5844;51.496;6.788;2023-07-13T09:56:57;21.50;1.00
11577;DHT22;5844;51.496;6.788;2023-07-13T09:59:29;21.60;1.00
11577;DHT22;5844;51.496;6.788;2023-07-13T10:01:56;22.60;1.00
11577;DHT22;5844;51.496;6.788;2023-07-13T10:04:33;22.40;1.00
11577;DHT22;5844;51.496;6.788;2023-07-13T10:07:08;22.40;1.00
11577;DHT22;5844;51.496;6.788;2023-07-13T10:09:34;23.40;1.00
11577;DHT22;5844;51.496;6.788;2023-07-13T10:12:00;23.80;1.00
11577;DHT22;5844;51.496;6.788;2023-07-13T10:14:28;23.30;1.00
11577;DHT22;5844;51.496;6.788;2023-07-13T10:17:01;22.70;1.00
11577;DHT22;5844;51.496;6.788;2023-07-13T10:19:31;22.80;1.00
11577;DHT22;5844;51.496;6.788;2023-07-13T10:22:10;22.10;1.00
11577;DHT22;5844;51.496;6.788;2023-07-13T10:24:39;22.40;1.00
11577;DHT22;5844;51.496;6.788;2023-07-13T10:27:27;23.20;1.00
11577;DHT22;5844;51.496;6.788;2023-07-13T10:30:20;22.70;1.00
11577;DHT22;5844;51.496;6.788;2023-07-13T10:32:48;23.20;1.00
11577;DHT22;5844;51.496;6.788;2023-07-13T10:35:17;22.90;1.00
11577;DHT22;5844;51.496;6.788;2023-07-13T10:37:57;23.10;1.00
11577;DHT22;5844;51.496;6.788;2023-07-13T10:40:34;24.00;1.00
11577;DHT22;5844;51.496;6.788;2023-07-13T10:43:04;24.10;1.00
11577;DHT22;5844;51.496;6.788;2023-07-13T10:45:34;24.60;1.00
11577;DHT22;5844;51.496;6.788;2023-07-13T10:48:00;25.40;1.00
11577;DHT22;5844;51.496;6.788;2023-07-13T10:50:28;26.30;1.00
11577;DHT22;5844;51.496;6.788;2023-07-13T10:53:02;26.20;1.00
11577;DHT22;5844;51.496;6.788;2023-07-13T10:58:19;27.40;1.00
11577;DHT22;5844;51.496;6.788;2023-07-13T11:03:30;26.50;1.00
11577;DHT22;5844;51.496;6.788;2023-07-13T11:08:53;25.20;1.00
11577;DHT22;5844;51.496;6.788;2023-07-13T11:13:57;24.70;1.00
11577;DHT22;5844;51.496;6.788;2023-07-13T11:22:09;24.20;1.00
11577;DHT22;5844;51.496;6.788;2023-07-13T11:25:01;24.90;1.00
11577;DHT22;5844;51.496;6.788;2023-07-13T11:27:40;25.70;1.00
11577;DHT22;5844;51.496;6.788;2023-07-13T11:30:17;25.90;1.00
11577;DHT22;5844;51.496;6.788;2023-07-13T11:32:50;26.20;1.00
11577;DHT22;5844;51.496;6.788;2023-07-13T11:35:22;26.00;1.00
11577;DHT22;5844;51.496;6.788;2023-07-13T11:37:49;26.30;1.00
11577;DHT22;5844;51.496;6.788;2023-07-13T11:40:15;26.30;1.00
11577;DHT22;5844;51.496;6.788;2023-07-13T11:42:41;26.60;1.00
11577;DHT22;5844;51.496;6.788;2023-07-13T11:45:20;26.80;1.00
11577;DHT22;5844;51.496;6.788;2023-07-13T11:47:49;26.30;1.00
11577;DHT22;5844;51.496;6.788;2023-07-13T11:50:19;26.10;1.00
11577;DHT22;5844;51.496;6.788;2023-07-13T11:52:45;26.00;1.00
11577;DHT22;5844;51.496;6.788;2023-07-13T11:55:17;26.30;1.00
11577;DHT22;5844;51.496;6.788;2023-07-13T11:58:03;27.00;1.00
11577;DHT22;5844;51.496;6.788;2023-07-13T12:00:31;27.40;1.00
11577;DHT22;5844;51.496;6.788;2023-07-13T12:03:00;27.60;1.00
11577;DHT22;5844;51.496;6.788;2023-07-13T12:05:28;27.20;1.00
11577;DHT22;5844;51.496;6.788;2023-07-13T12:07:56;26.10;1.00
11577;DHT22;5844;51.496;6.788;2023-07-13T12:10:24;25.30;1.00
11577;DHT22;5844;51.496;6.788;2023-07-13T12:12:58;24.70;1.00
11577;DHT22;5844;51.496;6.788;2023-07-13T12:15:45;24.50;1.00
11577;DHT22;5844;51.496;6.788;2023-07-13T12:18:22;26.10;1.00
11577;DHT22;5844;51.496;6.788;2023-07-13T12:20:50;27.40;1.00
11577;DHT22;5844;51.496;6.788;2023-07-13T12:23:36;28.60;1.00
11577;DHT22;5844;51.496;6.788;2023-07-13T12:26:04;29.90;1.00
11577;DHT22;5844;51.496;6.788;2023-07-13T12:28:44;29.70;1.00
11577;DHT22;5844;51.496;6.788;2023-07-13T12:31:37;28.50;1.00
11577;DHT22;5844;51.496;6.788;2023-07-13T12:34:07;27.10;1.00
11577;DHT22;5844;51.496;6.788;2023-07-13T12:36:40;25.50;1.00
11577;DHT22;5844;51.496;6.788;2023-07-13T12:39:34;24.80;1.00
11577;DHT22;5844;51.496;6.788;2023-07-13T12:42:24;24.00;1.00
11577;DHT22;5844;51.496;6.788;2023-07-13T12:45:01;23.40;1.00
11577;DHT22;5844;51.496;6.788;2023-07-13T12:47:27;22.90;1.00
11577;DHT22;5844;51.496;6.788;2023-07-13T12:49:56;22.50;1.00
11577;DHT22;5844;51.496;6.788;2023-07-13T12:52:34;22.20;1.00
11577;DHT22;5844;51.496;6.788;2023-07-13T12:55:15;22.00;1.00
11577;DHT22;5844;51.496;6.788;2023-07-13T12:57:55;21.90;1.00
11577;DHT22;5844;51.496;6.788;2023-07-13T13:00:35;22.00;1.00
11577;DHT22;5844;51.496;6.788;2023-07-13T13:03:12;21.80;1.00
11577;DHT22;5844;51.496;6.788;2023-07-13T13:05:43;21.40;1.00
11577;DHT22;5844;51.496;6.788;2023-07-13T13:08:14;21.30;1.00
11577;DHT22;5844;51.496;6.788;2023-07-13T13:10:39;21.50;1.00
11577;DHT22;5844;51.496;6.788;2023-07-13T13:13:05;21.70;1.00
11577;DHT22;5844;51.496;6.788;2023-07-13T13:15:31;22.00;1.00
11577;DHT22;5844;51.496;6.788;2023-07-13T13:17:58;22.30;1.00
11577;DHT22;5844;51.496;6.788;2023-07-13T13:20:24;22.50;1.00
11577;DHT22;5844;51.496;6.788;2023-07-13T13:22:51;22.90;1.00
11577;DHT22;5844;51.496;6.788;2023-07-13T13:25:17;23.60;1.00
11577;DHT22;5844;51.496;6.788;2023-07-13T13:27:44;24.10;1.00
11577;DHT22;5844;51.496;6.788;2023-07-13T13:30:15;24.70;1.00
11577;DHT22;5844;51.496;6.788;2023-07-13T13:32:42;25.30;1.00
11577;DHT22;5844;51.496;6.788;2023-07-13T13:35:19;25.80;1.00
11577;DHT22;5844;51.496;6.788;2023-07-13T13:37:46;26.40;1.00
11577;DHT22;5844;51.496;6.788;2023-07-13T13:40:21;27.50;1.00
11577;DHT22;5844;51.496;6.788;2023-07-13T13:42:48;27.50;1.00
11577;DHT22;5844;51.496;6.788;2023-07-13T13:45:14;27.00;1.00
11577;DHT22;5844;51.496;6.788;2023-07-13T13:47:41;26.20;1.00
11577;DHT22;5844;51.496;6.788;2023-07-13T13:50:20;25.50;1.00
11577;DHT22;5844;51.496;6.788;2023-07-13T13:52:48;24.90;1.00
11577;DHT22;5844;51.496;6.788;2023-07-13T13:55:15;24.50;1.00
11577;DHT22;5844;51.496;6.788;2023-07-13T13:57:41;24.20;1.00
11577;DHT22;5844;51.496;6.788;2023-07-13T14:00:11;23.90;1.00
11577;DHT22;5844;51.496;6.788;2023-07-13T14:02:41;23.80;1.00
11577;DHT22;5844;51.496;6.788;2023-07-13T14:05:11;23.90;1.00
11577;DHT22;5844;51.496;6.788;2023-07-13T14:07:37;24.60;1.00
11577;DHT22;5844;51.496;6.788;2023-07-13T14:10:14;26.20;1.00
11577;DHT22;5844;51.496;6.788;2023-07-13T14:12:41;28.10;1.00
11577;DHT22;5844;51.496;6.788;2023-07-13T14:15:21;29.40;1.00
11577;DHT22;5844;51.496;6.788;2023-07-13T14:17:46;29.70;1.00
11577;DHT22;5844;51.496;6.788;2023-07-13T14:20:16;30.10;1.00
11577;DHT22;5844;51.496;6.788;2023-07-13T14:22:42;30.10;1.00
11577;DHT22;5844;51.496;6.788;2023-07-13T14:25:15;29.20;1.00
11577;DHT22;5844;51.496;6.788;2023-07-13T14:27:42;28.00;1.00
11577;DHT22;5844;51.496;6.788;2023-07-13T14:30:17;27.40;1.00
11577;DHT22;5844;51.496;6.788;2023-07-13T14:32:43;28.10;1.00
11577;DHT22;5844;51.496;6.788;2023-07-13T14:35:13;28.30;1.00
11577;DHT22;5844;51.496;6.788;2023-07-13T14:37:40;28.40;1.00
11577;DHT22;5844;51.496;6.788;2023-07-13T14:40:17;28.50;1.00
11577;DHT22;5844;51.496;6.788;2023-07-13T14:42:44;29.40;1.00
11577;DHT22;5844;51.496;6.788;2023-07-13T14:45:20;30.70;1.00
11577;DHT22;5844;51.496;6.788;2023-07-13T14:47:46;32.00;1.00
11577;DHT22;5844;51.496;6.788;2023-07-13T14:50:18;32.50;1.00
11577;DHT22;5844;51.496;6.788;2023-07-13T14:52:46;31.30;1.00
11577;DHT22;5844;51.496;6.788;2023-07-13T14:55:15;30.00;1.00
11577;DHT22;5844;51.496;6.788;2023-07-13T14:57:42;28.40;1.00
11577;DHT22;5844;51.496;6.788;2023-07-13T15:00:21;27.00;1.00
11577;DHT22;5844;51.496;6.788;2023-07-13T15:02:52;26.00;1.00
11577;DHT22;5844;51.496;6.788;2023-07-13T15:05:24;25.00;1.00
11577;DHT22;5844;51.496;6.788;2023-07-13T15:07:51;24.20;1.00
11577;DHT22;5844;51.496;6.788;2023-07-13T15:10:23;23.70;1.00
11577;DHT22;5844;51.496;6.788;2023-07-13T15:12:56;23.30;1.00
11577;DHT22;5844;51.496;6.788;2023-07-13T15:15:22;22.90;1.00
11577;DHT22;5844;51.496;6.788;2023-07-13T15:17:48;22.70;1.00
11577;DHT22;5844;51.496;6.788;2023-07-13T15:20:32;21.90;1.00
11577;DHT22;5844;51.496;6.788;2023-07-13T15:22:58;20.40;1.00
11577;DHT22;5844;51.496;6.788;2023-07-13T15:25:26;19.30;1.00
11577;DHT22;5844;51.496;6.788;2023-07-13T15:27:54;18.70;1.00
11577;DHT22;5844;51.496;6.788;2023-07-13T15:30:20;18.30;1.00
11577;DHT22;5844;51.496;6.788;2023-07-13T15:32:46;18.10;1.00
11577;DHT22;5844;51.496;6.788;2023-07-13T15:35:17;17.90;1.00
11577;DHT22;5844;51.496;6.788;2023-07-13T15:37:44;17.80;1.00
11577;DHT22;5844;51.496;6.788;2023-07-13T15:40:11;17.80;1.00
11577;DHT22;5844;51.496;6.788;2023-07-13T15:42:38;17.70;1.00
11577;DHT22;5844;51.496;6.788;2023-07-13T15:45:15;17.70;1.00
11577;DHT22;5844;51.496;6.788;2023-07-13T15:47:43;17.60;1.00
11577;DHT22;5844;51.496;6.788;2023-07-13T15:50:18;17.60;1.00
11577;DHT22;5844;51.496;6.788;2023-07-13T15:52:49;17.60;1.00
11577;DHT22;5844;51.496;6.788;2023-07-13T15:55:15;17.70;1.00
11577;DHT22;5844;51.496;6.788;2023-07-13T15:57:50;17.80;1.00
11577;DHT22;5844;51.496;6.788;2023-07-13T16:00:27;18.00;1.00
11577;DHT22;5844;51.496;6.788;2023-07-13T16:02:53;18.20;1.00
11577;DHT22;5844;51.496;6.788;2023-07-13T16:05:20;18.40;1.00
11577;DHT22;5844;51.496;6.788;2023-07-13T16:07:49;18.60;1.00
11577;DHT22;5844;51.496;6.788;2023-07-13T16:10:30;18.70;1.00
11577;DHT22;5844;51.496;6.788;2023-07-13T16:12:55;18.70;1.00
11577;DHT22;5844;51.496;6.788;2023-07-13T16:15:22;18.90;1.00
11577;DHT22;5844;51.496;6.788;2023-07-13T16:17:48;18.90;1.00
11577;DHT22;5844;51.496;6.788;2023-07-13T16:20:15;19.00;1.00
11577;DHT22;5844;51.496;6.788;2023-07-13T16:22:45;19.00;1.00
11577;DHT22;5844;51.496;6.788;2023-07-13T16:25:19;19.00;1.00
11577;DHT22;5844;51.496;6.788;2023-07-13T16:27:46;19.00;1.00
11577;DHT22;5844;51.496;6.788;2023-07-13T16:30:20;19.10;1.00
11577;DHT22;5844;51.496;6.788;2023-07-13T16:32:50;19.00;1.00
11577;DHT22;5844;51.496;6.788;2023-07-13T16:35:26;19.10;1.00
11577;DHT22;5844;51.496;6.788;2023-07-13T16:37:52;19.10;1.00
11577;DHT22;5844;51.496;6.788;2023-07-13T16:40:23;19.10;1.00
11577;DHT22;5844;51.496;6.788;2023-07-13T16:42:50;19.00;1.00